Montana Mines, West Virginia
Current Conditions -  °F | °C
As of 12:56 PM on Tuesday 21 Oct 2014 (Local Time) from KMGW Reporting Station
Moderate Rain Moderate Rain  
Wind Chill: 53°   Ceiling: 600
Heat Index: 53°   Visibility: 1.5mi
Dew Point: 48°   Wind: 5mph
Humidity: 83%   Direction: 300°WNW
Pressure: 29.89"   Gusts: NA
Location:  39.54°N, 80.12°W
Report Text: KMGW 211656Z 30004KT 1 1/2SM RA BKN006 OVC013 12/09 A2989 RMK AO2 CIG 003V009 P0000 T01170089
Loading
Personal Weather Stations






























Interactive Weather Map
Tropical Storm Tracking
New forecast layout! Learn more

10-Day Weather Forecast

Advertisements
Track Severe Weather on mobile